sensor_id;sensor_type;location;lat;lon;timestamp;pressure;altitude;pressure_sealevel;temperature;humidity
54556;BME280;57291;37.520;15.106;2023-07-20T00:02:11;100662.31;;;29.04;73.24
54556;BME280;57291;37.520;15.106;2023-07-20T00:04:39;100660.47;;;28.94;73.58
54556;BME280;57291;37.520;15.106;2023-07-20T00:07:06;100662.16;;;28.88;74.05
54556;BME280;57291;37.520;15.106;2023-07-20T00:09:34;100657.41;;;28.85;75.04
54556;BME280;57291;37.520;15.106;2023-07-20T00:12:01;100649.06;;;28.81;75.42
54556;BME280;57291;37.520;15.106;2023-07-20T00:14:28;100655.50;;;28.78;75.17
54556;BME280;57291;37.520;15.106;2023-07-20T00:16:56;100651.91;;;28.78;74.87
54556;BME280;57291;37.520;15.106;2023-07-20T00:19:27;100641.50;;;28.78;75.41
54556;BME280;57291;37.520;15.106;2023-07-20T00:21:54;100642.31;;;28.79;76.47
54556;BME280;57291;37.520;15.106;2023-07-20T00:24:22;100659.56;;;28.73;76.50
54556;BME280;57291;37.520;15.106;2023-07-20T00:26:50;100659.97;;;28.72;76.06
54556;BME280;57291;37.520;15.106;2023-07-20T00:29:17;100648.00;;;28.71;74.25
54556;BME280;57291;37.520;15.106;2023-07-20T00:31:46;100635.66;;;28.69;68.73
54556;BME280;57291;37.520;15.106;2023-07-20T00:34:14;100637.31;;;28.66;66.26
54556;BME280;57291;37.520;15.106;2023-07-20T00:36:41;100655.66;;;28.67;64.93
54556;BME280;57291;37.520;15.106;2023-07-20T00:39:09;100641.56;;;28.74;71.09
54556;BME280;57291;37.520;15.106;2023-07-20T00:41:36;100642.41;;;28.71;71.50
54556;BME280;57291;37.520;15.106;2023-07-20T00:44:04;100636.47;;;28.69;71.79
54556;BME280;57291;37.520;15.106;2023-07-20T00:46:32;100649.22;;;28.70;72.75
54556;BME280;57291;37.520;15.106;2023-07-20T00:49:00;100637.38;;;28.59;73.63
54556;BME280;57291;37.520;15.106;2023-07-20T00:51:28;100629.50;;;28.54;74.69
54556;BME280;57291;37.520;15.106;2023-07-20T00:53:55;100629.09;;;28.52;75.56
54556;BME280;57291;37.520;15.106;2023-07-20T00:56:22;100629.53;;;28.50;76.46
54556;BME280;57291;37.520;15.106;2023-07-20T00:58:50;100626.75;;;28.50;77.89
54556;BME280;57291;37.520;15.106;2023-07-20T01:01:18;100618.75;;;28.49;79.10
54556;BME280;57291;37.520;15.106;2023-07-20T01:03:46;100626.78;;;28.47;79.78
54556;BME280;57291;37.520;15.106;2023-07-20T01:06:24;100620.56;;;28.32;79.94
54556;BME280;57291;37.520;15.106;2023-07-20T01:09:13;100619.34;;;28.33;80.30
54556;BME280;57291;37.520;15.106;2023-07-20T01:12:02;100621.72;;;28.35;81.22
54556;BME280;57291;37.520;15.106;2023-07-20T01:14:32;100617.44;;;28.26;80.96
54556;BME280;57291;37.520;15.106;2023-07-20T01:17:00;100613.94;;;28.19;81.40
54556;BME280;57291;37.520;15.106;2023-07-20T01:19:27;100613.22;;;28.15;81.65
54556;BME280;57291;37.520;15.106;2023-07-20T01:32:54;100600.88;;;28.12;80.83
54556;BME280;57291;37.520;15.106;2023-07-20T01:35:28;100604.09;;;28.11;80.03
54556;BME280;57291;37.520;15.106;2023-07-20T01:37:55;100608.03;;;28.13;78.54
54556;BME280;57291;37.520;15.106;2023-07-20T01:40:25;100602.91;;;28.08;77.81
54556;BME280;57291;37.520;15.106;2023-07-20T01:42:52;100595.00;;;28.03;76.63
54556;BME280;57291;37.520;15.106;2023-07-20T01:45:20;100595.78;;;28.03;73.89
54556;BME280;57291;37.520;15.106;2023-07-20T01:47:47;100608.16;;;28.02;71.86
54556;BME280;57291;37.520;15.106;2023-07-20T01:50:14;100614.94;;;28.05;70.83
54556;BME280;57291;37.520;15.106;2023-07-20T01:52:41;100608.03;;;28.13;69.59
54556;BME280;57291;37.520;15.106;2023-07-20T01:55:09;100605.63;;;28.15;69.82
54556;BME280;57291;37.520;15.106;2023-07-20T01:57:36;100606.34;;;28.19;67.81
54556;BME280;57291;37.520;15.106;2023-07-20T02:00:03;100611.91;;;28.23;66.27
54556;BME280;57291;37.520;15.106;2023-07-20T02:02:41;100611.53;;;28.21;67.14
54556;BME280;57291;37.520;15.106;2023-07-20T02:05:09;100616.06;;;28.11;70.02
54556;BME280;57291;37.520;15.106;2023-07-20T02:07:36;100598.56;;;28.07;69.90
54556;BME280;57291;37.520;15.106;2023-07-20T02:10:03;100605.72;;;28.08;68.72
54556;BME280;57291;37.520;15.106;2023-07-20T02:12:31;100596.94;;;28.06;68.28
54556;BME280;57291;37.520;15.106;2023-07-20T02:14:58;100603.72;;;28.09;68.78
54556;BME280;57291;37.520;15.106;2023-07-20T02:17:25;100605.72;;;28.08;68.35
54556;BME280;57291;37.520;15.106;2023-07-20T02:19:53;100598.56;;;28.07;67.86
54556;BME280;57291;37.520;15.106;2023-07-20T02:22:21;100592.97;;;28.07;67.30
54556;BME280;57291;37.520;15.106;2023-07-20T02:24:49;100596.50;;;28.11;65.87
54556;BME280;57291;37.520;15.106;2023-07-20T02:27:17;100584.06;;;28.16;62.14
54556;BME280;57291;37.520;15.106;2023-07-20T02:29:44;100594.34;;;28.22;61.75
54556;BME280;57291;37.520;15.106;2023-07-20T02:32:11;100588.31;;;28.27;55.51
54556;BME280;57291;37.520;15.106;2023-07-20T02:34:39;100590.94;;;28.38;54.99
54556;BME280;57291;37.520;15.106;2023-07-20T02:37:06;100596.88;;;28.44;55.64
54556;BME280;57291;37.520;15.106;2023-07-20T02:39:36;100595.66;;;28.45;53.23
54556;BME280;57291;37.520;15.106;2023-07-20T02:42:03;100594.41;;;28.49;52.60
54556;BME280;57291;37.520;15.106;2023-07-20T02:44:30;100592.31;;;28.57;52.64
54556;BME280;57291;37.520;15.106;2023-07-20T02:46:57;100589.78;;;28.66;52.56
54556;BME280;57291;37.520;15.106;2023-07-20T02:49:25;100588.50;;;28.71;52.32
54556;BME280;57291;37.520;15.106;2023-07-20T02:51:52;100586.88;;;28.73;52.45
54556;BME280;57291;37.520;15.106;2023-07-20T02:54:19;100587.59;;;28.78;50.46
54556;BME280;57291;37.520;15.106;2023-07-20T02:56:46;100583.16;;;28.80;49.81
54556;BME280;57291;37.520;15.106;2023-07-20T02:59:13;100587.97;;;28.80;50.21
54556;BME280;57291;37.520;15.106;2023-07-20T03:01:41;100587.13;;;28.83;47.47
54556;BME280;57291;37.520;15.106;2023-07-20T03:04:09;100587.84;;;28.87;47.76
54556;BME280;57291;37.520;15.106;2023-07-20T03:06:39;100587.47;;;28.85;47.27
54556;BME280;57291;37.520;15.106;2023-07-20T03:09:07;100588.31;;;28.82;46.66
54556;BME280;57291;37.520;15.106;2023-07-20T03:11:36;100591.97;;;28.79;45.69
54556;BME280;57291;37.520;15.106;2023-07-20T03:14:03;100581.47;;;28.86;44.10
54556;BME280;57291;37.520;15.106;2023-07-20T03:16:31;100582.19;;;28.90;43.80
54556;BME280;57291;37.520;15.106;2023-07-20T03:19:00;100585.38;;;28.92;42.89
54556;BME280;57291;37.520;15.106;2023-07-20T03:21:28;100589.75;;;28.93;42.13
54556;BME280;57291;37.520;15.106;2023-07-20T03:23:58;100588.97;;;28.93;42.35
54556;BME280;57291;37.520;15.106;2023-07-20T03:26:25;100582.13;;;28.94;41.59
54556;BME280;57291;37.520;15.106;2023-07-20T03:28:53;100586.06;;;29.00;41.06
54556;BME280;57291;37.520;15.106;2023-07-20T03:31:21;100576.44;;;29.01;40.81
54556;BME280;57291;37.520;15.106;2023-07-20T03:33:48;100579.97;;;29.05;40.76
54556;BME280;57291;37.520;15.106;2023-07-20T03:36:16;100579.97;;;29.05;40.66
54556;BME280;57291;37.520;15.106;2023-07-20T03:38:43;100587.22;;;29.03;41.39
54556;BME280;57291;37.520;15.106;2023-07-20T03:41:10;100586.88;;;28.97;41.83
54556;BME280;57291;37.520;15.106;2023-07-20T03:43:38;100591.69;;;28.96;41.82
54556;BME280;57291;37.520;15.106;2023-07-20T03:46:05;100593.31;;;28.94;41.64
54556;BME280;57291;37.520;15.106;2023-07-20T03:48:34;100597.25;;;29.00;40.70
54556;BME280;57291;37.520;15.106;2023-07-20T03:51:01;100593.91;;;29.09;40.21
54556;BME280;57291;37.520;15.106;2023-07-20T03:53:28;100591.47;;;29.11;40.25
54556;BME280;57291;37.520;15.106;2023-07-20T03:55:55;100593.88;;;29.12;40.18
54556;BME280;57291;37.520;15.106;2023-07-20T03:58:22;100592.97;;;29.15;40.35
54556;BME280;57291;37.520;15.106;2023-07-20T04:00:51;100593.88;;;29.12;40.65
54556;BME280;57291;37.520;15.106;2023-07-20T04:03:19;100593.91;;;29.09;40.25
54556;BME280;57291;37.520;15.106;2023-07-20T04:05:47;100591.78;;;29.16;39.11
54556;BME280;57291;37.520;15.106;2023-07-20T04:08:14;100596.78;;;29.29;38.39
54556;BME280;57291;37.520;15.106;2023-07-20T04:10:45;100603.38;;;29.38;38.43
54556;BME280;57291;37.520;15.106;2023-07-20T04:13:12;100601.38;;;29.39;38.39
54556;BME280;57291;37.520;15.106;2023-07-20T04:15:40;100595.28;;;29.44;37.27
54556;BME280;57291;37.520;15.106;2023-07-20T04:18:07;100592.84;;;29.46;37.36
54556;BME280;57291;37.520;15.106;2023-07-20T04:20:34;100595.59;;;29.50;37.82
54556;BME280;57291;37.520;15.106;2023-07-20T04:23:02;100598.88;;;29.44;38.35
54556;BME280;57291;37.520;15.106;2023-07-20T04:25:29;100598.09;;;29.44;38.30
54556;BME280;57291;37.520;15.106;2023-07-20T04:28:08;100600.88;;;29.44;38.55
54556;BME280;57291;37.520;15.106;2023-07-20T04:30:40;100597.22;;;29.47;37.69
54556;BME280;57291;37.520;15.106;2023-07-20T04:33:07;100597.16;;;29.51;38.10
54556;BME280;57291;37.520;15.106;2023-07-20T04:35:53;100599.03;;;29.57;37.93
54556;BME280;57291;37.520;15.106;2023-07-20T04:38:29;100603.31;;;29.65;38.02
54556;BME280;57291;37.520;15.106;2023-07-20T04:41:16;100607.13;;;29.75;37.66
54556;BME280;57291;37.520;15.106;2023-07-20T04:43:47;100604.25;;;29.79;37.89
54556;BME280;57291;37.520;15.106;2023-07-20T04:46:19;100610.94;;;29.85;37.81
54556;BME280;57291;37.520;15.106;2023-07-20T04:48:49;100608.34;;;29.94;38.65
54556;BME280;57291;37.520;15.106;2023-07-20T04:51:17;100607.78;;;30.03;37.81
54556;BME280;57291;37.520;15.106;2023-07-20T04:53:50;100615.25;;;30.09;37.27
54556;BME280;57291;37.520;15.106;2023-07-20T04:56:18;100619.06;;;30.19;36.95
54556;BME280;57291;37.520;15.106;2023-07-20T04:58:46;100617.06;;;30.20;37.79
54556;BME280;57291;37.520;15.106;2023-07-20T05:01:13;100616.91;;;30.27;38.11
54556;BME280;57291;37.520;15.106;2023-07-20T05:03:41;100609.94;;;30.35;37.50
54556;BME280;57291;37.520;15.106;2023-07-20T05:06:09;100614.59;;;30.42;35.14
54556;BME280;57291;37.520;15.106;2023-07-20T05:08:36;100612.69;;;30.55;34.12
54556;BME280;57291;37.520;15.106;2023-07-20T05:11:03;100610.78;;;30.68;33.42
54556;BME280;57291;37.520;15.106;2023-07-20T05:13:31;100616.53;;;30.81;33.06
54556;BME280;57291;37.520;15.106;2023-07-20T05:15:58;100614.22;;;30.92;32.80
54556;BME280;57291;37.520;15.106;2023-07-20T05:18:26;100617.03;;;31.08;33.12
54556;BME280;57291;37.520;15.106;2023-07-20T05:20:53;100614.31;;;31.21;33.98
54556;BME280;57291;37.520;15.106;2023-07-20T05:23:22;100613.19;;;31.35;32.88
54556;BME280;57291;37.520;15.106;2023-07-20T05:26:08;100620.16;;;31.60;33.06
54556;BME280;57291;37.520;15.106;2023-07-20T05:28:36;100623.03;;;31.85;33.27
54556;BME280;57291;37.520;15.106;2023-07-20T05:31:03;100614.19;;;32.16;32.34
54556;BME280;57291;37.520;15.106;2023-07-20T05:33:30;100621.56;;;32.52;30.62
54556;BME280;57291;37.520;15.106;2023-07-20T05:35:57;100619.25;;;33.23;29.94
54556;BME280;57291;37.520;15.106;2023-07-20T05:38:25;100626.00;;;34.48;28.05
54556;BME280;57291;37.520;15.106;2023-07-20T05:40:52;100630.84;;;35.93;26.94
54556;BME280;57291;37.520;15.106;2023-07-20T05:43:19;100623.16;;;37.21;24.95
54556;BME280;57291;37.520;15.106;2023-07-20T05:45:46;100621.66;;;37.59;24.26
54556;BME280;57291;37.520;15.106;2023-07-20T05:48:15;100621.25;;;37.27;24.86
54556;BME280;57291;37.520;15.106;2023-07-20T05:50:43;100622.34;;;37.05;25.06
54556;BME280;57291;37.520;15.106;2023-07-20T05:53:11;100620.16;;;36.67;25.01
54556;BME280;57291;37.520;15.106;2023-07-20T05:55:38;100626.69;;;36.40;25.15
54556;BME280;57291;37.520;15.106;2023-07-20T05:58:07;100622.03;;;36.19;25.97
54556;BME280;57291;37.520;15.106;2023-07-20T06:00:34;100625.16;;;36.30;25.90
54556;BME280;57291;37.520;15.106;2023-07-20T06:03:01;100624.88;;;37.03;26.27
54556;BME280;57291;37.520;15.106;2023-07-20T06:05:29;100625.94;;;38.08;25.63
54556;BME280;57291;37.520;15.106;2023-07-20T06:07:56;100630.66;;;39.11;27.54
54556;BME280;57291;37.520;15.106;2023-07-20T06:10:24;100631.78;;;39.60;30.47
54556;BME280;57291;37.520;15.106;2023-07-20T06:12:51;100634.13;;;39.21;31.15
54556;BME280;57291;37.520;15.106;2023-07-20T06:17:54;100639.75;;;38.80;32.68
54556;BME280;57291;37.520;15.106;2023-07-20T06:20:23;100646.31;;;38.86;32.96
54556;BME280;57291;37.520;15.106;2023-07-20T06:22:51;100649.56;;;39.14;31.38
54556;BME280;57291;37.520;15.106;2023-07-20T06:25:20;100651.56;;;39.49;31.38
54556;BME280;57291;37.520;15.106;2023-07-20T06:27:49;100653.25;;;39.61;29.94
54556;BME280;57291;37.520;15.106;2023-07-20T06:30:18;100649.13;;;39.62;29.95
54556;BME280;57291;37.520;15.106;2023-07-20T06:32:45;100658.56;;;39.12;30.13
54556;BME280;57291;37.520;15.106;2023-07-20T06:35:13;100649.94;;;39.42;29.41
54556;BME280;57291;37.520;15.106;2023-07-20T06:37:40;100655.03;;;38.82;32.32
54556;BME280;57291;37.520;15.106;2023-07-20T06:40:08;100649.00;;;38.30;32.86
54556;BME280;57291;37.520;15.106;2023-07-20T06:42:41;100653.69;;;38.63;32.26
54556;BME280;57291;37.520;15.106;2023-07-20T06:45:11;100652.31;;;39.08;31.58
54556;BME280;57291;37.520;15.106;2023-07-20T06:47:39;100654.94;;;39.12;32.52
54556;BME280;57291;37.520;15.106;2023-07-20T06:50:10;100660.75;;;38.67;31.73
54556;BME280;57291;37.520;15.106;2023-07-20T06:52:43;100650.13;;;38.83;31.36
54556;BME280;57291;37.520;15.106;2023-07-20T06:55:10;100653.16;;;38.79;33.27
54556;BME280;57291;37.520;15.106;2023-07-20T06:57:40;100651.31;;;38.91;31.77
54556;BME280;57291;37.520;15.106;2023-07-20T07:00:12;100659.84;;;39.11;30.86
54556;BME280;57291;37.520;15.106;2023-07-20T07:02:39;100646.16;;;39.10;31.09
54556;BME280;57291;37.520;15.106;2023-07-20T07:05:12;100646.75;;;39.34;30.22
54556;BME280;57291;37.520;15.106;2023-07-20T07:07:46;100640.03;;;39.17;28.94
54556;BME280;57291;37.520;15.106;2023-07-20T07:10:13;100646.16;;;39.10;29.98
54556;BME280;57291;37.520;15.106;2023-07-20T07:12:40;100645.34;;;38.74;29.17
54556;BME280;57291;37.520;15.106;2023-07-20T07:15:08;100645.19;;;38.98;30.93
54556;BME280;57291;37.520;15.106;2023-07-20T07:17:37;100638.09;;;39.08;30.76
54556;BME280;57291;37.520;15.106;2023-07-20T07:20:06;100637.34;;;39.49;27.32
54556;BME280;57291;37.520;15.106;2023-07-20T07:22:37;100647.31;;;39.38;31.47
54556;BME280;57291;37.520;15.106;2023-07-20T07:25:05;100642.44;;;39.24;28.21
54556;BME280;57291;37.520;15.106;2023-07-20T07:27:32;100640.31;;;39.19;27.16
54556;BME280;57291;37.520;15.106;2023-07-20T07:30:00;100655.38;;;39.05;29.70
54556;BME280;57291;37.520;15.106;2023-07-20T07:32:29;100658.09;;;39.14;31.86
54556;BME280;57291;37.520;15.106;2023-07-20T07:34:57;100658.78;;;39.09;30.73
54556;BME280;57291;37.520;15.106;2023-07-20T07:37:25;100657.56;;;39.15;29.92
54556;BME280;57291;37.520;15.106;2023-07-20T07:39:52;100652.13;;;39.73;25.66
54556;BME280;57291;37.520;15.106;2023-07-20T07:42:20;100651.56;;;39.69;24.84
54556;BME280;57291;37.520;15.106;2023-07-20T07:44:50;100650.84;;;39.54;24.69
54556;BME280;57291;37.520;15.106;2023-07-20T07:47:17;100651.56;;;39.69;25.51
54556;BME280;57291;37.520;15.106;2023-07-20T07:52:47;100660.16;;;40.01;22.96
54556;BME280;57291;37.520;15.106;2023-07-20T07:55:14;100662.22;;;39.54;25.78
54556;BME280;57291;37.520;15.106;2023-07-20T07:57:44;100669.09;;;39.06;27.68
54556;BME280;57291;37.520;15.106;2023-07-20T08:00:12;100668.50;;;39.02;26.12
54556;BME280;57291;37.520;15.106;2023-07-20T08:02:45;100661.81;;;39.05;23.70
54556;BME280;57291;37.520;15.106;2023-07-20T08:05:15;100659.06;;;39.11;22.39
54556;BME280;57291;37.520;15.106;2023-07-20T08:07:42;100657.75;;;39.27;22.15
54556;BME280;57291;37.520;15.106;2023-07-20T08:10:10;100654.28;;;39.37;21.82
54556;BME280;57291;37.520;15.106;2023-07-20T08:12:37;100654.13;;;39.26;22.37
54556;BME280;57291;37.520;15.106;2023-07-20T08:15:04;100657.88;;;39.17;21.99
54556;BME280;57291;37.520;15.106;2023-07-20T08:17:31;100647.97;;;38.92;22.03
54556;BME280;57291;37.520;15.106;2023-07-20T08:19:59;100652.97;;;38.83;22.59
54556;BME280;57291;37.520;15.106;2023-07-20T08:22:26;100662.41;;;38.74;21.63
54556;BME280;57291;37.520;15.106;2023-07-20T08:24:54;100655.47;;;38.60;21.52
54556;BME280;57291;37.520;15.106;2023-07-20T08:27:21;100665.22;;;38.74;21.65
54556;BME280;57291;37.520;15.106;2023-07-20T08:29:48;100661.13;;;38.90;20.61
54556;BME280;57291;37.520;15.106;2023-07-20T08:32:16;100663.59;;;39.03;20.62
54556;BME280;57291;37.520;15.106;2023-07-20T08:34:43;100664.03;;;38.81;20.94
54556;BME280;57291;37.520;15.106;2023-07-20T08:37:10;100653.88;;;38.74;21.42
54556;BME280;57291;37.520;15.106;2023-07-20T08:39:37;100663.38;;;38.71;21.35
54556;BME280;57291;37.520;15.106;2023-07-20T08:42:05;100660.72;;;38.82;20.48
54556;BME280;57291;37.520;15.106;2023-07-20T08:44:33;100670.47;;;39.31;19.00
54556;BME280;57291;37.520;15.106;2023-07-20T08:47:01;100665.06;;;39.74;18.36
54556;BME280;57291;37.520;15.106;2023-07-20T08:49:31;100669.59;;;39.86;18.41
54556;BME280;57291;37.520;15.106;2023-07-20T08:51:59;100668.47;;;40.04;18.09
54556;BME280;57291;37.520;15.106;2023-07-20T08:54:30;100665.06;;;40.00;17.37
54556;BME280;57291;37.520;15.106;2023-07-20T08:57:04;100666.84;;;39.72;18.47
54556;BME280;57291;37.520;15.106;2023-07-20T08:59:36;100665.47;;;39.26;18.37
54556;BME280;57291;37.520;15.106;2023-07-20T09:02:04;100661.47;;;38.98;19.49
54556;BME280;57291;37.520;15.106;2023-07-20T09:04:32;100661.97;;;38.81;20.41
54556;BME280;57291;37.520;15.106;2023-07-20T09:07:00;100662.97;;;38.78;20.73
54556;BME280;57291;37.520;15.106;2023-07-20T09:09:27;100662.19;;;38.78;20.21
54556;BME280;57291;37.520;15.106;2023-07-20T09:11:54;100654.50;;;38.63;19.37
54556;BME280;57291;37.520;15.106;2023-07-20T09:14:23;100654.09;;;38.56;19.17
54556;BME280;57291;37.520;15.106;2023-07-20T09:16:55;100647.53;;;38.35;19.39
54556;BME280;57291;37.520;15.106;2023-07-20T09:19:23;100645.63;;;37.87;20.11
54556;BME280;57291;37.520;15.106;2023-07-20T09:21:51;100648.38;;;37.82;20.99
54556;BME280;57291;37.520;15.106;2023-07-20T09:24:19;100647.56;;;37.51;20.82
54556;BME280;57291;37.520;15.106;2023-07-20T09:26:48;100643.69;;;37.78;22.46
54556;BME280;57291;37.520;15.106;2023-07-20T09:29:18;100655.28;;;38.05;21.64
54556;BME280;57291;37.520;15.106;2023-07-20T09:32:04;100646.34;;;37.97;20.02
54556;BME280;57291;37.520;15.106;2023-07-20T09:34:32;100642.16;;;37.92;19.47
54556;BME280;57291;37.520;15.106;2023-07-20T09:37:02;100648.47;;;37.87;20.60
54556;BME280;57291;37.520;15.106;2023-07-20T09:39:31;100652.53;;;37.95;20.04
54556;BME280;57291;37.520;15.106;2023-07-20T09:42:01;100647.63;;;37.96;19.02
54556;BME280;57291;37.520;15.106;2023-07-20T09:44:32;100643.44;;;38.06;20.66
54556;BME280;57291;37.520;15.106;2023-07-20T09:47:03;100637.38;;;38.28;21.39
54556;BME280;57291;37.520;15.106;2023-07-20T09:49:32;100636.41;;;38.31;20.36
54556;BME280;57291;37.520;15.106;2023-07-20T09:52:19;100640.31;;;38.34;21.78
54556;BME280;57291;37.520;15.106;2023-07-20T09:54:50;100647.75;;;38.01;18.87
54556;BME280;57291;37.520;15.106;2023-07-20T09:57:18;100648.78;;;37.50;23.06
54556;BME280;57291;37.520;15.106;2023-07-20T09:59:46;100643.31;;;37.23;23.92
54556;BME280;57291;37.520;15.106;2023-07-20T10:02:20;100632.69;;;37.08;22.78
54556;BME280;57291;37.520;15.106;2023-07-20T10:04:54;100636.19;;;37.03;21.68
54556;BME280;57291;37.520;15.106;2023-07-20T10:07:22;100635.06;;;37.10;21.50
54556;BME280;57291;37.520;15.106;2023-07-20T10:09:53;100635.00;;;36.86;21.61
54556;BME280;57291;37.520;15.106;2023-07-20T10:12:22;100636.38;;;36.67;22.13
54556;BME280;57291;37.520;15.106;2023-07-20T10:14:57;100639.84;;;36.61;22.34
54556;BME280;57291;37.520;15.106;2023-07-20T10:20:27;100637.06;;;37.19;22.43
54556;BME280;57291;37.520;15.106;2023-07-20T10:22:56;100632.53;;;37.12;21.97
54556;BME280;57291;37.520;15.106;2023-07-20T10:25:24;100638.06;;;37.06;21.54
54556;BME280;57291;37.520;15.106;2023-07-20T10:27:51;100636.97;;;37.04;21.72
54556;BME280;57291;37.520;15.106;2023-07-20T10:30:19;100635.47;;;37.18;21.79
54556;BME280;57291;37.520;15.106;2023-07-20T10:32:51;100634.75;;;37.32;22.06
54556;BME280;57291;37.520;15.106;2023-07-20T10:35:19;100628.28;;;37.31;21.90
54556;BME280;57291;37.520;15.106;2023-07-20T10:37:54;100628.97;;;37.50;23.39
54556;BME280;57291;37.520;15.106;2023-07-20T10:40:33;100633.72;;;37.83;21.00
54556;BME280;57291;37.520;15.106;2023-07-20T10:43:03;100629.00;;;37.80;21.11
54556;BME280;57291;37.520;15.106;2023-07-20T10:45:34;100626.28;;;37.86;21.76
54556;BME280;57291;37.520;15.106;2023-07-20T10:48:06;100631.31;;;38.06;20.33
54556;BME280;57291;37.520;15.106;2023-07-20T10:50:33;100618.97;;;37.94;20.95
54556;BME280;57291;37.520;15.106;2023-07-20T10:53:10;100627.78;;;37.96;21.47
54556;BME280;57291;37.520;15.106;2023-07-20T10:55:39;100628.47;;;38.06;21.82
54556;BME280;57291;37.520;15.106;2023-07-20T10:58:11;100625.81;;;38.17;20.69
54556;BME280;57291;37.520;15.106;2023-07-20T11:00:58;100613.78;;;38.22;20.05
54556;BME280;57291;37.520;15.106;2023-07-20T11:03:32;100619.38;;;38.01;20.84
54556;BME280;57291;37.520;15.106;2023-07-20T11:09:13;100615.47;;;37.99;20.52
54556;BME280;57291;37.520;15.106;2023-07-20T11:11:44;100613.63;;;38.11;20.92
54556;BME280;57291;37.520;15.106;2023-07-20T11:14:21;100618.28;;;38.14;21.36
54556;BME280;57291;37.520;15.106;2023-07-20T11:16:50;100615.34;;;38.23;22.37
54556;BME280;57291;37.520;15.106;2023-07-20T11:19:21;100614.66;;;38.28;21.78
54556;BME280;57291;37.520;15.106;2023-07-20T11:21:58;100606.94;;;38.43;22.42
54556;BME280;57291;37.520;15.106;2023-07-20T11:24:30;100593.41;;;38.53;21.75
54556;BME280;57291;37.520;15.106;2023-07-20T11:26:59;100601.22;;;38.58;20.98
54556;BME280;57291;37.520;15.106;2023-07-20T11:29:27;100600.81;;;38.65;22.08
54556;BME280;57291;37.520;15.106;2023-07-20T11:32:00;100598.91;;;38.57;21.75
54556;BME280;57291;37.520;15.106;2023-07-20T11:34:30;100600.34;;;38.67;21.31
54556;BME280;57291;37.520;15.106;2023-07-20T11:36:58;100598.94;;;38.77;20.42
54556;BME280;57291;37.520;15.106;2023-07-20T11:39:29;100608.34;;;38.83;19.96
54556;BME280;57291;37.520;15.106;2023-07-20T11:41:57;100601.38;;;38.69;18.90
54556;BME280;57291;37.520;15.106;2023-07-20T11:44:28;100592.91;;;38.55;19.07
54556;BME280;57291;37.520;15.106;2023-07-20T11:47:08;100596.59;;;38.40;18.73
54556;BME280;57291;37.520;15.106;2023-07-20T11:49:42;100589.41;;;38.45;19.11
54556;BME280;57291;37.520;15.106;2023-07-20T11:52:11;100588.91;;;38.46;19.03
54556;BME280;57291;37.520;15.106;2023-07-20T11:54:41;100592.09;;;38.69;18.69
54556;BME280;57291;37.520;15.106;2023-07-20T11:57:18;100580.50;;;39.08;18.86
54556;BME280;57291;37.520;15.106;2023-07-20T12:00:01;100585.59;;;39.45;17.99
54556;BME280;57291;37.520;15.106;2023-07-20T12:02:32;100579.41;;;39.26;18.13
54556;BME280;57291;37.520;15.106;2023-07-20T12:05:00;100579.63;;;39.22;18.58
54556;BME280;57291;37.520;15.106;2023-07-20T12:07:28;100578.53;;;39.14;18.03
54556;BME280;57291;37.520;15.106;2023-07-20T12:10:10;100570.22;;;39.10;18.51
54556;BME280;57291;37.520;15.106;2023-07-20T12:12:39;100573.94;;;39.22;18.65
54556;BME280;57291;37.520;15.106;2023-07-20T12:15:23;100570.44;;;39.07;18.17
54556;BME280;57291;37.520;15.106;2023-07-20T12:17:53;100570.47;;;38.92;18.03
54556;BME280;57291;37.520;15.106;2023-07-20T12:20:30;100570.56;;;38.98;18.66
54556;BME280;57291;37.520;15.106;2023-07-20T12:23:00;100572.50;;;39.06;18.18
54556;BME280;57291;37.520;15.106;2023-07-20T12:25:37;100570.56;;;38.98;18.19
54556;BME280;57291;37.520;15.106;2023-07-20T12:28:16;100558.41;;;38.77;17.94
54556;BME280;57291;37.520;15.106;2023-07-20T12:30:45;100563.00;;;38.74;17.48
54556;BME280;57291;37.520;15.106;2023-07-20T12:33:13;100562.47;;;38.90;17.91
54556;BME280;57291;37.520;15.106;2023-07-20T12:35:44;100554.38;;;38.83;17.87
54556;BME280;57291;37.520;15.106;2023-07-20T12:38:29;100558.00;;;38.84;19.20
54556;BME280;57291;37.520;15.106;2023-07-20T12:40:57;100561.41;;;38.73;18.81
54556;BME280;57291;37.520;15.106;2023-07-20T12:43:27;100559.38;;;38.74;18.75
54556;BME280;57291;37.520;15.106;2023-07-20T12:45:55;100558.56;;;38.73;19.03
54556;BME280;57291;37.520;15.106;2023-07-20T12:48:23;100560.44;;;38.76;18.57
54556;BME280;57291;37.520;15.106;2023-07-20T12:50:50;100552.50;;;38.80;19.18
54556;BME280;57291;37.520;15.106;2023-07-20T12:53:17;100552.50;;;38.80;18.49
54556;BME280;57291;37.520;15.106;2023-07-20T12:55:44;100557.09;;;38.78;18.33
54556;BME280;57291;37.520;15.106;2023-07-20T12:58:12;100552.41;;;38.75;17.96
54556;BME280;57291;37.520;15.106;2023-07-20T13:00:40;100550.66;;;38.77;18.39
54556;BME280;57291;37.520;15.106;2023-07-20T13:03:07;100546.09;;;38.65;18.06
54556;BME280;57291;37.520;15.106;2023-07-20T13:05:36;100544.81;;;38.66;18.20
54556;BME280;57291;37.520;15.106;2023-07-20T13:08:06;100545.53;;;38.61;18.30
54556;BME280;57291;37.520;15.106;2023-07-20T13:10:37;100540.50;;;38.70;17.54
54556;BME280;57291;37.520;15.106;2023-07-20T13:13:05;100537.16;;;38.72;18.86
54556;BME280;57291;37.520;15.106;2023-07-20T13:15:41;100550.00;;;38.67;18.70